Time;durP1;ratioP1;P1;durP2;ratioP2;P2;SDS_P1;SDS_P2;PMS_P1;PMS_P2;Temp;Humidity;BMP_temperature;BMP_pressure;BME280_temperature;BME280_humidity;BME280_pressure;Samples;Min_cycle;Max_cycle;Signal;HPM_P1;HPM_P2
2023/09/08 00:01:45;;;;;;;;;;;;;;;-144.99;100.00;52158.66;4934923;29;19984;-61
2023/09/08 00:04:12;;;;;;;;;;;;;;;-144.99;100.00;52158.66;4939029;29;20045;-61
2023/09/08 00:06:39;;;;;;;;;;;;;;;-144.99;100.00;52170.91;4938688;29;20005;-63
2023/09/08 00:09:08;;;;;;;;;;;;;;;-144.99;100.00;52187.19;4934459;29;20041;-62
2023/09/08 00:11:34;;;;;;;;;;;;;;;-144.99;100.00;52146.44;4935738;29;19933;-63
2023/09/08 00:14:01;;;;;;;;;;;;;;;-144.99;100.00;52185.16;4940768;29;19969;-62
2023/09/08 00:16:29;;;;;;;;;;;;;;;-144.99;100.00;52197.41;4940128;29;19982;-62
2023/09/08 00:18:56;;;;;;;;;;;;;;;-144.99;100.00;52179.06;4935912;29;19961;-61
2023/09/08 00:21:23;;;;;;;;;;;;;;;-144.99;100.00;52168.84;4934528;29;19952;-62
2023/09/08 00:23:49;;;;;;;;;;;;;;;-144.99;100.00;52179.06;4934240;29;20033;-62
2023/09/08 00:26:17;;;;;;;;;;;;;;;-144.99;100.00;52199.44;4942496;29;20004;-63
2023/09/08 00:28:44;;;;;;;;;;;;;;;-144.99;100.00;52158.66;4935530;29;20725;-61
2023/09/08 00:31:10;;;;;;;;;;;;;;;-144.99;100.00;52183.13;4934369;29;20007;-62
2023/09/08 00:33:37;;;;;;;;;;;;;;;-144.99;100.00;52199.44;4940485;29;20018;-61
2023/09/08 00:36:03;;;;;;;;;;;;;;;-144.99;100.00;52199.44;4938082;29;20530;-61
2023/09/08 00:38:30;;;;;;;;;;;;;;;-144.99;100.00;52215.75;4940710;29;20027;-63
2023/09/08 00:40:56;;;;;;;;;;;;;;;-144.99;100.00;52168.84;4938583;29;20015;-62
2023/09/08 00:43:24;;;;;;;;;;;;;;;-144.99;99.99;52158.66;4934893;28;20046;-60
2023/09/08 00:45:51;;;;;;;;;;;;;;;-144.99;100.00;52211.66;4936363;29;19988;-62
2023/09/08 00:48:18;;;;;;;;;;;;;;;-144.99;99.82;52183.13;4939497;28;19962;-62
2023/09/08 00:50:44;;;;;;;;;;;;;;;-144.99;99.86;52158.66;4932569;29;19954;-62
2023/09/08 00:53:11;;;;;;;;;;;;;;;-144.99;99.87;52205.53;4933472;29;19961;-61
2023/09/08 00:55:39;;;;;;;;;;;;;;;-144.99;99.87;52170.91;4947301;29;20428;-62
2023/09/08 00:58:07;;;;;;;;;;;;;;;-144.99;99.43;52211.66;4939760;29;20391;-63
2023/09/08 01:00:35;;;;;;;;;;;;;;;-144.99;99.13;52179.06;4933448;29;19998;-63
2023/09/08 01:03:02;;;;;;;;;;;;;;;-144.99;98.87;52170.91;4933434;29;20004;-63
2023/09/08 01:05:29;;;;;;;;;;;;;;;-144.99;98.91;52199.44;4937810;29;19927;-66
2023/09/08 01:07:56;;;;;;;;;;;;;;;-144.99;98.86;52183.13;4939669;29;20054;-64
2023/09/08 01:10:22;;;;;;;;;;;;;;;-144.99;98.77;52191.28;4938581;29;20023;-65
2023/09/08 01:12:49;;;;;;;;;;;;;;;-144.99;98.74;52179.06;4932515;29;20621;-65
2023/09/08 01:15:15;;;;;;;;;;;;;;;-144.99;98.53;52172.94;4935067;29;20025;-64
2023/09/08 01:17:43;;;;;;;;;;;;;;;-144.99;98.46;52185.16;4940875;29;20029;-65
2023/09/08 01:20:14;;;;;;;;;;;;;;;-144.99;98.50;52162.75;4933153;29;20422;-65
2023/09/08 01:22:46;;;;;;;;;;;;;;;-144.99;98.50;52193.31;4934686;29;20043;-65
2023/09/08 01:25:18;;;;;;;;;;;;;;;-144.99;98.96;52181.09;4942123;29;20005;-61
2023/09/08 01:27:48;;;;;;;;;;;;;;;-144.99;98.65;52205.53;4939566;29;20047;-61
2023/09/08 01:30:15;;;;;;;;;;;;;;;-144.99;98.73;52232.03;4941645;29;20393;-65
2023/09/08 01:32:42;;;;;;;;;;;;;;;-144.99;98.48;52232.03;4941193;28;19967;-62
2023/09/08 01:35:09;;;;;;;;;;;;;;;-144.99;98.54;52221.84;4932620;29;20009;-62
2023/09/08 01:37:35;;;;;;;;;;;;;;;-144.99;98.54;52207.59;4939937;29;19970;-62
2023/09/08 01:40:02;;;;;;;;;;;;;;;-144.99;98.57;52191.28;4933052;29;20535;-61
2023/09/08 01:42:30;;;;;;;;;;;;;;;-144.99;98.67;52232.03;4933279;28;19934;-62
2023/09/08 01:44:56;;;;;;;;;;;;;;;-144.99;98.53;52203.50;4931758;29;20369;-62
2023/09/08 01:47:23;;;;;;;;;;;;;;;-144.99;98.37;52177.00;4936649;29;20068;-62
2023/09/08 01:49:49;;;;;;;;;;;;;;;-144.99;98.27;52174.97;4937373;29;20041;-62
2023/09/08 01:52:16;;;;;;;;;;;;;;;-144.99;98.05;52203.50;4939564;29;19969;-62
2023/09/08 01:54:42;;;;;;;;;;;;;;;-144.99;98.09;52219.81;4929778;29;20073;-63
2023/09/08 01:57:08;;;;;;;;;;;;;;;-144.99;98.08;52215.75;4933607;29;20039;-62
2023/09/08 01:59:37;;;;;;;;;;;;;;;-144.99;98.38;52199.44;4928431;29;19972;-61
2023/09/08 02:02:04;;;;;;;;;;;;;;;-144.99;98.61;52191.28;4931758;29;20032;-62
2023/09/08 02:04:31;;;;;;;;;;;;;;;-144.99;98.49;52213.69;4937698;29;19931;-62
2023/09/08 02:06:57;;;;;;;;;;;;;;;-144.99;98.33;52195.34;4938622;29;19977;-61
2023/09/08 02:09:31;;;;;;;;;;;;;;;-144.99;98.44;52227.97;4941912;29;19999;-60
2023/09/08 02:11:57;;;;;;;;;;;;;;;-144.99;98.52;52203.50;4931872;29;20472;-61
2023/09/08 02:14:24;;;;;;;;;;;;;;;-144.99;98.66;52207.59;4931702;29;20008;-60
2023/09/08 02:16:51;;;;;;;;;;;;;;;-144.99;98.30;52215.75;4941599;29;19947;-62
2023/09/08 02:19:18;;;;;;;;;;;;;;;-144.99;98.45;52207.59;4934905;29;19941;-60
2023/09/08 02:21:44;;;;;;;;;;;;;;;-144.99;98.46;52187.19;4930855;29;19947;-61
2023/09/08 02:24:11;;;;;;;;;;;;;;;-144.99;98.46;52199.44;4938001;29;19965;-62
2023/09/08 02:26:38;;;;;;;;;;;;;;;-144.99;98.68;52183.13;4937948;29;19948;-62
2023/09/08 02:29:05;;;;;;;;;;;;;;;-144.99;98.57;52215.75;4924260;29;20037;-62
2023/09/08 02:31:31;;;;;;;;;;;;;;;-144.99;98.74;52203.50;4935654;29;20424;-61
2023/09/08 02:33:59;;;;;;;;;;;;;;;-144.99;98.71;52179.06;4941293;29;19962;-65
2023/09/08 02:36:26;;;;;;;;;;;;;;;-144.99;98.95;52219.81;4936216;29;19965;-67
2023/09/08 02:38:52;;;;;;;;;;;;;;;-144.99;98.98;52244.28;4938815;29;20397;-62
2023/09/08 02:41:19;;;;;;;;;;;;;;;-144.99;98.87;52209.63;4931800;29;19949;-62
2023/09/08 02:43:45;;;;;;;;;;;;;;;-144.99;99.08;52209.63;4941536;28;19971;-63
2023/09/08 02:46:12;;;;;;;;;;;;;;;-144.99;99.07;52213.69;4936817;29;20431;-62
2023/09/08 02:48:38;;;;;;;;;;;;;;;-144.99;99.34;52215.75;4938099;29;20010;-63
2023/09/08 02:51:06;;;;;;;;;;;;;;;-144.99;99.25;52252.44;4932399;29;19988;-65
2023/09/08 02:53:33;;;;;;;;;;;;;;;-144.99;99.41;52207.59;4930956;29;19985;-62
2023/09/08 02:55:59;;;;;;;;;;;;;;;-144.99;99.22;52205.53;4946671;29;19998;-63
2023/09/08 02:58:27;;;;;;;;;;;;;;;-144.99;99.24;52219.81;4933660;29;19931;-62
2023/09/08 03:00:53;;;;;;;;;;;;;;;-144.99;99.35;52203.50;4930221;29;19946;-64
2023/09/08 03:03:20;;;;;;;;;;;;;;;-144.99;99.17;52219.81;4933910;29;19969;-61
2023/09/08 03:05:47;;;;;;;;;;;;;;;-144.99;99.57;52207.59;4937484;29;20047;-62
2023/09/08 03:08:14;;;;;;;;;;;;;;;-144.99;99.71;52232.03;4938701;29;19998;-62
2023/09/08 03:10:41;;;;;;;;;;;;;;;-144.99;99.97;52207.59;4938595;29;20030;-62
2023/09/08 03:13:07;;;;;;;;;;;;;;;-144.99;100.00;52260.56;4930985;29;19974;-65
2023/09/08 03:15:35;;;;;;;;;;;;;;;-144.99;100.00;52195.34;4937179;29;20056;-64
2023/09/08 03:18:01;;;;;;;;;;;;;;;-144.99;100.00;52240.19;4949610;29;19941;-63
2023/09/08 03:20:28;;;;;;;;;;;;;;;-144.99;100.00;52211.66;4937199;29;20404;-62
2023/09/08 03:22:55;;;;;;;;;;;;;;;-144.99;100.00;52223.88;4936466;29;19934;-61
2023/09/08 03:25:23;;;;;;;;;;;;;;;-144.99;100.00;52217.78;4935546;29;20051;-63
2023/09/08 03:27:49;;;;;;;;;;;;;;;-144.99;100.00;52252.44;4943343;29;19946;-63
2023/09/08 03:30:16;;;;;;;;;;;;;;;-144.99;100.00;52191.28;4945559;29;20406;-64
2023/09/08 03:32:42;;;;;;;;;;;;;;;-144.99;100.00;52223.88;4938802;29;19946;-62
2023/09/08 03:35:09;;;;;;;;;;;;;;;-144.99;100.00;52211.66;4935218;29;20006;-64
2023/09/08 03:37:36;;;;;;;;;;;;;;;-144.99;100.00;52211.66;4943743;29;19941;-63
2023/09/08 03:40:04;;;;;;;;;;;;;;;-144.99;100.00;52234.09;4943283;29;19973;-62
2023/09/08 03:42:32;;;;;;;;;;;;;;;-144.99;100.00;52219.81;4940892;28;19981;-63
2023/09/08 03:44:58;;;;;;;;;;;;;;;-144.99;100.00;52211.66;4933797;29;20030;-63
2023/09/08 03:47:25;;;;;;;;;;;;;;;-144.99;100.00;52227.97;4935022;29;19966;-61
2023/09/08 03:49:51;;;;;;;;;;;;;;;-144.99;100.00;52219.81;4941863;29;20312;-62
2023/09/08 03:52:18;;;;;;;;;;;;;;;-144.99;100.00;52238.16;4937799;29;19934;-62
2023/09/08 03:54:46;;;;;;;;;;;;;;;-144.99;100.00;52240.19;4934859;29;20040;-60
2023/09/08 03:57:12;;;;;;;;;;;;;;;-144.99;100.00;52268.72;4935204;29;19969;-61
2023/09/08 03:59:40;;;;;;;;;;;;;;;-144.99;100.00;52238.16;4937620;29;20420;-62
2023/09/08 04:02:07;;;;;;;;;;;;;;;-144.99;100.00;52207.59;4942876;29;19985;-62
2023/09/08 04:04:33;;;;;;;;;;;;;;;-144.99;100.00;52211.66;4929401;29;20485;-62
2023/09/08 04:06:59;;;;;;;;;;;;;;;-144.99;100.00;52227.97;4933429;29;19961;-63
2023/09/08 04:09:27;;;;;;;;;;;;;;;-144.99;100.00;52236.13;4973618;23;21117;-74
2023/09/08 04:11:54;;;;;;;;;;;;;;;-144.99;100.00;52221.84;4988184;28;19978;-76
2023/09/08 04:14:23;;;;;;;;;;;;;;;-144.99;100.00;52244.28;4988766;28;19956;-76
2023/09/08 04:16:51;;;;;;;;;;;;;;;-144.99;100.00;52244.28;5002960;28;19956;-74
2023/09/08 04:19:17;;;;;;;;;;;;;;;-144.99;100.00;52260.56;4993380;28;20404;-74
2023/09/08 04:21:44;;;;;;;;;;;;;;;-144.99;100.00;52297.25;5002701;28;20032;-76
2023/09/08 04:24:11;;;;;;;;;;;;;;;-144.99;100.00;52215.75;5006684;28;19945;-76
2023/09/08 04:26:37;;;;;;;;;;;;;;;-144.99;100.00;52236.13;5010508;28;20033;-77
2023/09/08 04:29:03;;;;;;;;;;;;;;;-144.99;100.00;52264.66;5005713;28;20020;-74
2023/09/08 04:31:30;;;;;;;;;;;;;;;-144.99;100.00;52225.94;5004496;28;20026;-74
2023/09/08 04:34:01;;;;;;;;;;;;;;;-144.99;100.00;52238.16;5009320;28;19961;-75
2023/09/08 04:36:27;;;;;;;;;;;;;;;-144.99;100.00;52236.13;5003386;28;20005;-76
2023/09/08 04:38:54;;;;;;;;;;;;;;;-144.99;100.00;52187.19;5008027;28;20044;-75
2023/09/08 04:41:20;;;;;;;;;;;;;;;-144.99;100.00;52236.13;5000111;28;20014;-75
2023/09/08 04:43:46;;;;;;;;;;;;;;;-144.99;100.00;52244.28;5009046;28;20461;-75
2023/09/08 04:46:13;;;;;;;;;;;;;;;-144.99;100.00;52246.31;5009792;28;19993;-75
2023/09/08 04:48:39;;;;;;;;;;;;;;;-144.99;100.00;52227.97;5006913;28;20026;-76
2023/09/08 04:51:07;;;;;;;;;;;;;;;-144.99;100.00;52211.66;5006499;28;20410;-76
2023/09/08 04:53:33;;;;;;;;;;;;;;;-144.99;100.00;52219.81;5005628;28;19983;-75
2023/09/08 04:56:00;;;;;;;;;;;;;;;-144.99;100.00;52211.66;4996603;28;20536;-74
2023/09/08 04:58:27;;;;;;;;;;;;;;;-144.99;100.00;52260.56;5004702;28;19979;-74
2023/09/08 05:00:53;;;;;;;;;;;;;;;-144.99;100.00;52240.19;5002377;28;19933;-74
2023/09/08 05:03:20;;;;;;;;;;;;;;;-144.99;100.00;52221.84;5008472;28;20010;-70
2023/09/08 05:05:46;;;;;;;;;;;;;;;-144.99;100.00;52232.03;5005516;28;20075;-71
2023/09/08 05:08:14;;;;;;;;;;;;;;;-144.99;100.00;52260.56;5006909;28;19941;-73
2023/09/08 05:10:40;;;;;;;;;;;;;;;-144.99;100.00;52221.84;5007678;28;19963;-73
2023/09/08 05:13:06;;;;;;;;;;;;;;;-144.99;100.00;52219.81;5008502;28;19963;-72
2023/09/08 05:15:33;;;;;;;;;;;;;;;-144.99;100.00;52252.44;4310844;28;10000734;-73
2023/09/08 05:18:00;;;;;;;;;;;;;;;-144.99;100.00;52252.44;5003001;28;20052;-77
2023/09/08 05:20:26;;;;;;;;;;;;;;;-144.99;100.00;52236.13;4990101;28;20003;-77
2023/09/08 05:22:53;;;;;;;;;;;;;;;-144.99;100.00;52248.34;5005612;28;20610;-75
2023/09/08 05:25:21;;;;;;;;;;;;;;;-144.99;100.00;52223.88;5004423;28;19964;-77
2023/09/08 05:27:48;;;;;;;;;;;;;;;-144.99;100.00;52215.75;5004727;28;20139;-75
2023/09/08 05:30:15;;;;;;;;;;;;;;;-144.99;100.00;52174.97;5007406;28;20430;-76
2023/09/08 05:32:41;;;;;;;;;;;;;;;-144.99;100.00;52215.75;5008463;28;20460;-76
2023/09/08 05:35:08;;;;;;;;;;;;;;;-144.99;100.00;52187.19;4999728;28;20050;-76
2023/09/08 05:37:34;;;;;;;;;;;;;;;-144.99;100.00;52219.81;5002955;28;20427;-75
2023/09/08 05:40:00;;;;;;;;;;;;;;;-144.99;100.00;52191.28;5002983;28;20034;-76
2023/09/08 05:42:28;;;;;;;;;;;;;;;-144.99;100.00;52193.31;5011137;28;20050;-74
2023/09/08 05:44:55;;;;;;;;;;;;;;;-144.99;99.83;52215.75;5013372;28;19982;-80
2023/09/08 05:47:22;;;;;;;;;;;;;;;-144.99;99.64;52219.81;5011067;28;19925;-77
2023/09/08 05:49:48;;;;;;;;;;;;;;;-144.99;99.34;52223.88;5009219;28;19992;-78
2023/09/08 05:52:14;;;;;;;;;;;;;;;-144.99;98.77;52205.53;5007648;28;19995;-79
2023/09/08 05:54:41;;;;;;;;;;;;;;;-144.99;98.75;52219.81;5015295;28;20027;-82
2023/09/08 05:57:07;;;;;;;;;;;;;;;-144.99;98.34;52195.34;5012972;28;19964;-78
2023/09/08 05:59:35;;;;;;;;;;;;;;;-144.99;98.59;52207.59;5011673;28;19974;-82
2023/09/08 06:02:01;;;;;;;;;;;;;;;-144.99;98.02;52207.59;5012266;28;19954;-80
2023/09/08 06:04:28;;;;;;;;;;;;;;;-144.99;97.68;52174.97;5014151;28;20481;-78
2023/09/08 06:06:54;;;;;;;;;;;;;;;-144.99;97.72;52191.28;5004250;28;20017;-79
2023/09/08 06:09:21;;;;;;;;;;;;;;;-144.99;97.53;52199.44;5003557;28;20003;-80
2023/09/08 06:11:47;;;;;;;;;;;;;;;-144.99;97.46;52191.28;5004038;28;19981;-78
2023/09/08 06:14:14;;;;;;;;;;;;;;;-144.99;97.19;52191.28;5006366;28;20605;-80
2023/09/08 06:16:41;;;;;;;;;;;;;;;-144.99;96.73;52199.44;5000863;28;19989;-80
2023/09/08 06:19:08;;;;;;;;;;;;;;;-144.99;96.46;52193.31;5003057;28;20076;-79
2023/09/08 06:21:34;;;;;;;;;;;;;;;-144.99;95.68;52217.78;5002163;28;19986;-79
2023/09/08 06:24:01;;;;;;;;;;;;;;;-144.99;95.68;52191.28;5008195;28;20029;-81
2023/09/08 06:26:27;;;;;;;;;;;;;;;-144.99;95.79;52174.97;5003114;28;20082;-77
2023/09/08 06:28:53;;;;;;;;;;;;;;;-144.99;95.63;52170.91;5006412;28;20449;-78
2023/09/08 06:31:20;;;;;;;;;;;;;;;-144.99;95.27;52174.97;5003671;28;20061;-79
2023/09/08 06:33:51;;;;;;;;;;;;;;;-144.99;95.43;52211.66;5007858;28;20443;-77
2023/09/08 06:36:18;;;;;;;;;;;;;;;-144.99;95.07;52203.50;5004918;28;20051;-78
2023/09/08 06:38:44;;;;;;;;;;;;;;;-144.99;94.92;52227.97;5006912;28;19936;-79
2023/09/08 06:41:11;;;;;;;;;;;;;;;-144.99;94.32;52177.00;5007211;28;20363;-78
2023/09/08 06:43:38;;;;;;;;;;;;;;;-144.99;94.32;52187.19;5006276;28;19944;-78
2023/09/08 06:46:04;;;;;;;;;;;;;;;-144.99;93.89;52191.28;5002146;28;19968;-79
2023/09/08 06:48:31;;;;;;;;;;;;;;;-144.99;93.62;52162.75;5002653;28;19972;-79
2023/09/08 06:50:59;;;;;;;;;;;;;;;-144.99;93.36;52170.91;4999242;28;20033;-78
2023/09/08 06:53:25;;;;;;;;;;;;;;;-144.99;93.03;52187.19;5002103;28;20444;-77
2023/09/08 06:55:52;;;;;;;;;;;;;;;-144.99;93.31;52195.34;5005139;28;19962;-80
2023/09/08 06:58:18;;;;;;;;;;;;;;;-144.99;92.45;52170.91;5002022;28;19964;-79
2023/09/08 07:00:45;;;;;;;;;;;;;;;-144.99;91.86;52195.34;5004822;28;20447;-80
2023/09/08 07:03:11;;;;;;;;;;;;;;;-144.99;91.65;52130.13;5006980;28;20464;-78
2023/09/08 07:05:39;;;;;;;;;;;;;;;-144.99;91.05;52187.19;5002380;28;19946;-79
2023/09/08 07:08:07;;;;;;;;;;;;;;;-144.99;91.17;52179.06;4999943;28;19929;-78
2023/09/08 07:10:34;;;;;;;;;;;;;;;-144.99;90.49;52156.63;4997644;28;20056;-78
2023/09/08 07:13:00;;;;;;;;;;;;;;;-144.99;90.74;52174.97;5001110;28;20035;-79
2023/09/08 07:15:27;;;;;;;;;;;;;;;-144.99;90.04;52183.13;4996959;28;19931;-77
2023/09/08 07:17:53;;;;;;;;;;;;;;;-144.99;90.00;52170.91;5004226;28;20066;-79
2023/09/08 07:20:19;;;;;;;;;;;;;;;-144.99;89.92;52166.81;5004145;28;20031;-80
2023/09/08 07:22:46;;;;;;;;;;;;;;;-144.99;89.25;52177.00;5010920;28;20511;-78
2023/09/08 07:25:14;;;;;;;;;;;;;;;-144.99;88.22;52166.81;5008738;28;19943;-78
2023/09/08 07:27:41;;;;;;;;;;;;;;;-144.99;87.79;52174.97;5008628;28;20022;-78
2023/09/08 07:30:08;;;;;;;;;;;;;;;-144.99;87.67;52183.13;5008222;28;20023;-79
2023/09/08 07:32:34;;;;;;;;;;;;;;;-144.99;86.95;52162.75;5003784;28;19950;-78
2023/09/08 07:35:01;;;;;;;;;;;;;;;-144.99;87.60;52162.75;5000986;28;20074;-77
2023/09/08 07:37:27;;;;;;;;;;;;;;;-144.99;87.43;52126.06;5003001;28;20032;-77
2023/09/08 07:39:53;;;;;;;;;;;;;;;-144.99;86.32;52138.28;5003337;28;20066;-77
2023/09/08 07:42:21;;;;;;;;;;;;;;;-144.99;85.70;52164.78;5004113;28;20384;-79
2023/09/08 07:44:48;;;;;;;;;;;;;;;-144.99;85.86;52162.75;5003923;28;20427;-78
2023/09/08 07:47:14;;;;;;;;;;;;;;;-144.99;84.91;52154.59;5001154;28;20030;-80
2023/09/08 07:49:46;;;;;;;;;;;;;;;-144.99;83.80;52162.75;5004202;28;20048;-79
2023/09/08 07:52:12;;;;;;;;;;;;;;;-144.99;84.67;52109.75;5006219;28;20060;-79
2023/09/08 07:54:39;;;;;;;;;;;;;;;-144.99;83.74;52158.66;5006142;28;19944;-79
2023/09/08 07:57:05;;;;;;;;;;;;;;;-144.99;83.87;52146.44;4996435;28;19990;-78
2023/09/08 07:59:33;;;;;;;;;;;;;;;-144.99;82.38;52097.53;4994823;28;20034;-79
2023/09/08 08:01:59;;;;;;;;;;;;;;;-144.99;81.70;52121.97;5001491;28;20749;-78
2023/09/08 08:04:26;;;;;;;;;;;;;;;-144.99;81.14;52142.38;5003508;28;19952;-76
2023/09/08 08:06:52;;;;;;;;;;;;;;;-144.99;82.14;52134.22;5001338;28;20016;-78
2023/09/08 08:09:19;;;;;;;;;;;;;;;-144.99;80.94;52134.22;5003072;28;19977;-78
2023/09/08 08:11:45;;;;;;;;;;;;;;;-144.99;79.96;52130.13;5002886;28;19964;-79
2023/09/08 08:14:11;;;;;;;;;;;;;;;-144.99;79.34;52113.84;5007581;28;19929;-79
2023/09/08 08:16:39;;;;;;;;;;;;;;;-144.99;78.46;52097.53;4998191;28;20067;-80
2023/09/08 08:19:06;;;;;;;;;;;;;;;-144.99;78.60;52117.91;5004901;28;20038;-79
2023/09/08 08:21:32;;;;;;;;;;;;;;;-144.99;78.34;52117.91;5006335;28;19936;-80
2023/09/08 08:23:59;;;;;;;;;;;;;;;-144.99;77.16;52097.53;5011201;28;19991;-80
2023/09/08 08:26:28;;;;;;;;;;;;;;;-144.99;76.59;52101.59;5010264;28;19952;-80
2023/09/08 08:28:54;;;;;;;;;;;;;;;-144.99;76.50;52093.44;5000056;28;19980;-78
2023/09/08 08:31:21;;;;;;;;;;;;;;;-144.99;76.82;52115.88;5006456;28;19959;-80
2023/09/08 08:33:49;;;;;;;;;;;;;;;-144.99;76.87;52064.91;5009677;28;19936;-77
2023/09/08 08:36:15;;;;;;;;;;;;;;;-144.99;75.91;52097.53;5007456;28;19963;-79
2023/09/08 08:38:42;;;;;;;;;;;;;;;-144.99;76.09;52121.97;5009433;28;19960;-79
2023/09/08 08:41:08;;;;;;;;;;;;;;;-144.99;75.07;52121.97;5008532;28;19933;-80
2023/09/08 08:43:35;;;;;;;;;;;;;;;-144.99;75.34;52093.44;5011569;28;20034;-79
2023/09/08 08:46:02;;;;;;;;;;;;;;;-144.99;75.92;52113.84;5010572;28;20035;-79
2023/09/08 08:48:30;;;;;;;;;;;;;;;-144.99;75.17;52075.09;5008209;28;19957;-80
2023/09/08 08:50:58;;;;;;;;;;;;;;;-144.99;73.46;52095.50;5008522;28;20060;-79
2023/09/08 08:53:26;;;;;;;;;;;;;;;-144.99;73.43;52093.44;5011426;28;20040;-79
2023/09/08 08:55:54;;;;;;;;;;;;;;;-144.99;73.13;52073.06;5013183;28;19929;-81
2023/09/08 08:58:24;;;;;;;;;;;;;;;-144.99;73.77;52040.47;5006383;28;20429;-80
2023/09/08 09:00:53;;;;;;;;;;;;;;;-144.99;72.97;52060.84;5008615;28;20275;-80
2023/09/08 09:03:20;;;;;;;;;;;;;;;-144.99;72.68;52069.00;5007753;28;19978;-79
2023/09/08 09:05:47;;;;;;;;;;;;;;;-144.99;72.83;52054.72;5007003;28;19975;-79
2023/09/08 09:08:15;;;;;;;;;;;;;;;-144.99;72.67;52073.06;4997977;28;20097;-78
2023/09/08 09:10:42;;;;;;;;;;;;;;;-144.99;71.83;52064.91;5001658;28;20287;-79
2023/09/08 09:13:08;;;;;;;;;;;;;;;-144.99;70.98;52060.84;5002825;28;20415;-79
2023/09/08 09:15:35;;;;;;;;;;;;;;;-144.99;70.57;52038.44;4989404;28;20782;-79
2023/09/08 09:18:05;;;;;;;;;;;;;;;-144.99;71.07;52064.91;4993555;28;19957;-79
2023/09/08 09:20:31;;;;;;;;;;;;;;;-144.99;70.67;52085.31;5008257;28;19960;-79
2023/09/08 09:22:58;;;;;;;;;;;;;;;-144.99;70.52;52052.69;5008225;28;20441;-80
2023/09/08 09:25:26;;;;;;;;;;;;;;;-144.99;69.20;52009.91;5013320;28;19968;-80
2023/09/08 09:27:53;;;;;;;;;;;;;;;-144.99;68.70;52036.38;5008045;28;19944;-78
2023/09/08 09:30:20;;;;;;;;;;;;;;;-144.99;68.38;52069.00;5007657;28;19981;-79
2023/09/08 09:32:49;;;;;;;;;;;;;;;-144.99;67.88;52024.16;5005142;28;20580;-80
2023/09/08 09:35:15;;;;;;;;;;;;;;;-144.99;67.41;52016.00;5006484;28;20046;-80
2023/09/08 09:37:42;;;;;;;;;;;;;;;-144.99;67.05;52020.09;5009793;28;20548;-79
2023/09/08 09:40:10;;;;;;;;;;;;;;;-144.99;67.31;52064.91;5010272;28;20033;-79
2023/09/08 09:42:40;;;;;;;;;;;;;;;-144.99;67.02;52050.66;5004122;28;19964;-80
2023/09/08 09:45:07;;;;;;;;;;;;;;;-144.99;66.43;52007.84;5008417;28;20524;-80
2023/09/08 09:47:33;;;;;;;;;;;;;;;-144.99;65.63;51997.66;5001157;28;20642;-80
2023/09/08 09:50:00;;;;;;;;;;;;;;;-144.99;65.27;52001.75;5006493;28;20054;-79
2023/09/08 09:52:27;;;;;;;;;;;;;;;-144.99;64.45;52032.31;5007074;28;20044;-77
2023/09/08 09:54:54;;;;;;;;;;;;;;;-144.99;65.07;52032.31;5004793;28;19955;-77
2023/09/08 09:57:22;;;;;;;;;;;;;;;-144.99;64.86;52034.34;5002420;28;20039;-79
2023/09/08 09:59:50;;;;;;;;;;;;;;;-144.99;64.03;52007.84;5004970;28;19956;-78
2023/09/08 10:02:20;;;;;;;;;;;;;;;-144.99;63.64;51971.16;4997343;28;20024;-79
2023/09/08 10:04:48;;;;;;;;;;;;;;;-144.99;64.35;52036.38;5005331;28;19996;-80
2023/09/08 10:07:15;;;;;;;;;;;;;;;-144.99;63.56;52024.16;5004736;28;20046;-77
2023/09/08 10:09:41;;;;;;;;;;;;;;;-144.99;63.35;52007.84;5008927;28;20070;-80
2023/09/08 10:12:09;;;;;;;;;;;;;;;-144.99;62.23;51965.06;4999520;28;19930;-79
2023/09/08 10:14:36;;;;;;;;;;;;;;;-144.99;61.58;51946.72;5004148;28;19980;-80
2023/09/08 10:17:06;;;;;;;;;;;;;;;-144.99;61.07;51930.41;5001460;28;20001;-80
2023/09/08 10:19:38;;;;;;;;;;;;;;;-144.99;60.89;51934.50;5008361;28;20450;-79
2023/09/08 10:22:06;;;;;;;;;;;;;;;-144.99;60.88;51958.94;5012363;28;20026;-78
2023/09/08 10:24:34;;;;;;;;;;;;;;;-144.99;60.86;51922.25;5009324;28;19952;-80
2023/09/08 10:27:05;;;;;;;;;;;;;;;-144.99;61.24;51963.03;5007175;28;19929;-79
2023/09/08 10:29:32;;;;;;;;;;;;;;;-144.99;60.39;51928.38;5007717;28;20089;-80
2023/09/08 10:31:59;;;;;;;;;;;;;;;-144.99;59.48;51897.81;5009156;28;20044;-79
2023/09/08 10:34:27;;;;;;;;;;;;;;;-144.99;60.09;51893.72;4997172;28;19957;-78
2023/09/08 10:36:53;;;;;;;;;;;;;;;-144.99;58.61;51857.03;5004966;28;20034;-77
2023/09/08 10:39:35;;;;;;;;;;;;;;;-144.99;58.52;51865.19;5004766;28;19951;-78
2023/09/08 10:42:21;;;;;;;;;;;;;;;-144.99;59.13;51885.56;5000474;28;20699;-79
2023/09/08 10:44:56;;;;;;;;;;;;;;;-144.99;59.08;51885.56;5008263;28;19967;-79
2023/09/08 10:47:23;;;;;;;;;;;;;;;-144.99;58.07;51857.03;5006031;28;20009;-79
2023/09/08 10:49:53;;;;;;;;;;;;;;;-144.99;58.03;51873.34;5002241;28;19980;-78
2023/09/08 10:52:22;;;;;;;;;;;;;;;-144.99;57.21;51812.22;5003451;28;19939;-79
2023/09/08 10:54:49;;;;;;;;;;;;;;;-144.99;57.83;51836.66;5001408;28;19941;-77
2023/09/08 10:57:17;;;;;;;;;;;;;;;-144.99;58.15;51852.97;5003902;28;20061;-79
2023/09/08 10:59:46;;;;;;;;;;;;;;;-144.99;57.87;51820.38;5002305;28;20566;-78
2023/09/08 11:02:32;;;;;;;;;;;;;;;-144.99;57.84;51852.97;4997824;28;20044;-75
2023/09/08 11:05:00;;;;;;;;;;;;;;;-144.99;59.08;51840.75;4999578;28;20052;-80
2023/09/08 11:07:27;;;;;;;;;;;;;;;-144.99;57.84;51804.06;4994819;28;20010;-78
2023/09/08 11:09:53;;;;;;;;;;;;;;;-144.99;57.51;51812.22;5002234;28;20061;-77
2023/09/08 11:12:22;;;;;;;;;;;;;;;-144.99;57.62;51855.00;4998818;28;20026;-79
2023/09/08 11:14:49;;;;;;;;;;;;;;;-144.99;57.71;51852.97;4998904;28;19944;-79
2023/09/08 11:17:16;;;;;;;;;;;;;;;-144.99;58.95;51867.22;4995247;28;20051;-78
2023/09/08 11:19:46;;;;;;;;;;;;;;;-144.99;58.65;51855.00;5002499;28;20017;-78
2023/09/08 11:22:14;;;;;;;;;;;;;;;-144.99;58.27;51832.59;5004210;28;19945;-78
2023/09/08 11:24:42;;;;;;;;;;;;;;;-144.99;57.58;51808.13;5003275;28;20446;-78
2023/09/08 11:27:08;;;;;;;;;;;;;;;-144.99;57.97;51865.19;5005637;28;20338;-77
2023/09/08 11:29:35;;;;;;;;;;;;;;;-144.99;57.24;51799.97;5005068;28;19982;-78
2023/09/08 11:32:03;;;;;;;;;;;;;;;-144.99;56.45;51783.69;5003834;28;20069;-79
2023/09/08 11:34:29;;;;;;;;;;;;;;;-144.99;56.32;51755.16;5002126;28;20066;-78
2023/09/08 11:36:57;;;;;;;;;;;;;;;-144.99;56.31;51779.59;5007688;28;19977;-78
2023/09/08 11:39:25;;;;;;;;;;;;;;;-144.99;56.29;51793.88;5007463;28;20035;-79
2023/09/08 11:41:52;;;;;;;;;;;;;;;-144.99;56.32;51799.97;5005014;28;19951;-78
2023/09/08 11:44:19;;;;;;;;;;;;;;;-144.99;55.92;51775.53;5008489;28;20357;-78
2023/09/08 11:46:48;;;;;;;;;;;;;;;-144.99;55.36;51747.00;5006358;28;19948;-79
2023/09/08 11:49:14;;;;;;;;;;;;;;;-144.99;55.98;51771.44;4999964;28;19965;-78
2023/09/08 11:51:41;;;;;;;;;;;;;;;-144.99;56.26;51781.63;5005711;28;19936;-79
2023/09/08 11:54:07;;;;;;;;;;;;;;;-144.99;57.01;51799.97;5007363;28;19944;-79
2023/09/08 11:56:35;;;;;;;;;;;;;;;-144.99;57.96;51855.00;5007652;28;20573;-78
2023/09/08 11:59:02;;;;;;;;;;;;;;;-144.99;58.63;51844.81;5001022;28;19960;-79
2023/09/08 12:01:29;;;;;;;;;;;;;;;-144.99;58.26;51820.38;5005188;28;19974;-78
2023/09/08 12:03:55;;;;;;;;;;;;;;;-144.99;57.60;51828.50;5003794;28;20063;-76
2023/09/08 12:06:25;;;;;;;;;;;;;;;-144.99;57.22;51844.81;5003375;28;19945;-78
2023/09/08 12:08:51;;;;;;;;;;;;;;;-144.99;57.10;51814.25;5007343;28;20728;-78
2023/09/08 12:11:18;;;;;;;;;;;;;;;-144.99;57.82;51828.50;5002630;28;19995;-78
2023/09/08 12:13:46;;;;;;;;;;;;;;;-144.99;57.40;51844.81;5004296;28;19984;-77
2023/09/08 12:16:19;;;;;;;;;;;;;;;-144.99;57.76;51824.44;4993315;28;20037;-79
2023/09/08 12:18:45;;;;;;;;;;;;;;;-144.99;57.82;51808.13;5007247;28;20013;-78
2023/09/08 12:21:12;;;;;;;;;;;;;;;-144.99;58.54;51885.56;5008665;28;20015;-79
2023/09/08 12:23:47;;;;;;;;;;;;;;;-144.99;58.56;51873.34;4998601;28;20415;-79